sensor_id;sensor_type;location;lat;lon;timestamp;pressure;altitude;pressure_sealevel;temperature;humidity
68107;BME280;54892;47.488;19.026;2023-11-21T00:03:17;99519.84;;;7.14;90.96
68107;BME280;54892;47.488;19.026;2023-11-21T00:06:42;99520.25;;;7.06;91.59
68107;BME280;54892;47.488;19.026;2023-11-21T00:10:09;99516.50;;;7.02;91.68
68107;BME280;54892;47.488;19.026;2023-11-21T00:13:33;99509.56;;;6.91;92.23
68107;BME280;54892;47.488;19.026;2023-11-21T00:16:56;99499.63;;;6.93;92.11
68107;BME280;54892;47.488;19.026;2023-11-21T00:20:20;99502.66;;;6.84;92.57
68107;BME280;54892;47.488;19.026;2023-11-21T00:23:44;99504.78;;;6.88;92.56
68107;BME280;54892;47.488;19.026;2023-11-21T00:27:08;99502.91;;;7.05;91.64
68107;BME280;54892;47.488;19.026;2023-11-21T00:30:31;99507.69;;;7.08;91.09
68107;BME280;54892;47.488;19.026;2023-11-21T00:33:55;99518.06;;;7.20;90.35
68107;BME280;54892;47.488;19.026;2023-11-21T00:37:18;99514.59;;;7.37;89.21
68107;BME280;54892;47.488;19.026;2023-11-21T00:40:42;99528.06;;;7.45;88.77
68107;BME280;54892;47.488;19.026;2023-11-21T00:44:05;99540.47;;;7.28;89.59
68107;BME280;54892;47.488;19.026;2023-11-21T00:47:29;99540.09;;;7.19;89.77
68107;BME280;54892;47.488;19.026;2023-11-21T00:50:52;99542.38;;;6.93;90.65
68107;BME280;54892;47.488;19.026;2023-11-21T00:54:17;99542.38;;;6.93;91.08
68107;BME280;54892;47.488;19.026;2023-11-21T00:57:42;99547.75;;;6.81;91.43
68107;BME280;54892;47.488;19.026;2023-11-21T01:01:05;99541.13;;;6.79;91.80
68107;BME280;54892;47.488;19.026;2023-11-21T01:04:28;99539.31;;;6.79;91.93
68107;BME280;54892;47.488;19.026;2023-11-21T01:07:51;99529.37;;;6.81;91.74
68107;BME280;54892;47.488;19.026;2023-11-21T01:11:14;99528.09;;;6.84;91.71
68107;BME280;54892;47.488;19.026;2023-11-21T01:14:39;99522.66;;;6.91;91.37
68107;BME280;54892;47.488;19.026;2023-11-21T01:18:02;99522.75;;;6.96;91.08
68107;BME280;54892;47.488;19.026;2023-11-21T01:21:26;99514.25;;;7.11;89.89
68107;BME280;54892;47.488;19.026;2023-11-21T01:24:49;99509.66;;;7.01;90.36
68107;BME280;54892;47.488;19.026;2023-11-21T01:28:12;99516.47;;;6.97;90.87
68107;BME280;54892;47.488;19.026;2023-11-21T01:31:37;99510.78;;;7.05;90.49
68107;BME280;54892;47.488;19.026;2023-11-21T01:35:00;99507.31;;;6.99;90.75
68107;BME280;54892;47.488;19.026;2023-11-21T01:38:23;99515.44;;;6.98;91.03
68107;BME280;54892;47.488;19.026;2023-11-21T01:41:46;99503.63;;;6.78;91.49
68107;BME280;54892;47.488;19.026;2023-11-21T01:45:09;99505.37;;;6.73;91.86
68107;BME280;54892;47.488;19.026;2023-11-21T01:48:35;99509.53;;;6.68;92.19
68107;BME280;54892;47.488;19.026;2023-11-21T01:52:00;99503.81;;;6.54;92.82
68107;BME280;54892;47.488;19.026;2023-11-21T01:55:24;99505.25;;;6.45;93.52
68107;BME280;54892;47.488;19.026;2023-11-21T01:58:49;99500.44;;;6.37;93.90
68107;BME280;54892;47.488;19.026;2023-11-21T02:02:12;99491.28;;;6.39;94.17
68107;BME280;54892;47.488;19.026;2023-11-21T02:05:37;99503.56;;;6.39;93.96
68107;BME280;54892;47.488;19.026;2023-11-21T02:09:00;99489.22;;;6.42;93.60
68107;BME280;54892;47.488;19.026;2023-11-21T02:12:23;99490.97;;;6.36;93.49
68107;BME280;54892;47.488;19.026;2023-11-21T02:15:48;99483.97;;;6.24;94.15
68107;BME280;54892;47.488;19.026;2023-11-21T02:19:17;99486.84;;;6.23;94.58
68107;BME280;54892;47.488;19.026;2023-11-21T02:22:43;99480.00;;;6.22;94.91
68107;BME280;54892;47.488;19.026;2023-11-21T02:26:08;99470.41;;;6.28;94.74
68107;BME280;54892;47.488;19.026;2023-11-21T02:29:31;99467.78;;;6.28;94.83
68107;BME280;54892;47.488;19.026;2023-11-21T02:32:55;99460.78;;;6.16;95.20
68107;BME280;54892;47.488;19.026;2023-11-21T02:36:19;99455.62;;;6.21;95.48
68107;BME280;54892;47.488;19.026;2023-11-21T02:39:43;99454.75;;;6.33;95.15
68107;BME280;54892;47.488;19.026;2023-11-21T02:43:07;99456.94;;;6.41;94.92
68107;BME280;54892;47.488;19.026;2023-11-21T02:46:31;99454.19;;;6.31;95.15
68107;BME280;54892;47.488;19.026;2023-11-21T02:49:55;99463.41;;;6.33;95.58
68107;BME280;54892;47.488;19.026;2023-11-21T02:53:18;99472.72;;;6.24;95.41
68107;BME280;54892;47.488;19.026;2023-11-21T02:56:41;99459.84;;;6.22;95.97
68107;BME280;54892;47.488;19.026;2023-11-21T03:00:07;99471.53;;;6.15;95.67
68107;BME280;54892;47.488;19.026;2023-11-21T03:03:34;99458.44;;;6.15;95.90
68107;BME280;54892;47.488;19.026;2023-11-21T03:06:58;99450.16;;;6.23;95.47
68107;BME280;54892;47.488;19.026;2023-11-21T03:10:22;99454.63;;;6.22;95.15
68107;BME280;54892;47.488;19.026;2023-11-21T03:13:45;99444.59;;;6.19;95.23
68107;BME280;54892;47.488;19.026;2023-11-21T03:17:09;99442.75;;;6.20;94.92
68107;BME280;54892;47.488;19.026;2023-11-21T03:20:33;99439.53;;;6.13;94.94
68107;BME280;54892;47.488;19.026;2023-11-21T03:23:56;99436.03;;;6.07;95.52
68107;BME280;54892;47.488;19.026;2023-11-21T03:27:21;99427.38;;;6.06;95.91
68107;BME280;54892;47.488;19.026;2023-11-21T03:30:44;99426.59;;;6.06;95.88
68107;BME280;54892;47.488;19.026;2023-11-21T03:34:15;99429.22;;;6.06;95.44
68107;BME280;54892;47.488;19.026;2023-11-21T03:37:38;99421.00;;;5.85;96.04
68107;BME280;54892;47.488;19.026;2023-11-21T03:41:04;99417.44;;;5.91;96.24
68107;BME280;54892;47.488;19.026;2023-11-21T03:44:27;99404.25;;;5.86;96.61
68107;BME280;54892;47.488;19.026;2023-11-21T03:47:51;99394.34;;;5.88;96.70
68107;BME280;54892;47.488;19.026;2023-11-21T03:51:15;99404.09;;;5.93;96.82
68107;BME280;54892;47.488;19.026;2023-11-21T03:54:38;99408.50;;;5.92;96.98
68107;BME280;54892;47.488;19.026;2023-11-21T03:58:01;99416.94;;;5.94;97.06
68107;BME280;54892;47.488;19.026;2023-11-21T04:01:24;99419.81;;;5.93;97.17
68107;BME280;54892;47.488;19.026;2023-11-21T04:04:47;99426.16;;;5.97;97.32
68107;BME280;54892;47.488;19.026;2023-11-21T04:08:12;99425.56;;;6.07;97.36
68107;BME280;54892;47.488;19.026;2023-11-21T04:11:35;99411.19;;;6.09;96.85
68107;BME280;54892;47.488;19.026;2023-11-21T04:14:58;99417.19;;;6.10;96.77
68107;BME280;54892;47.488;19.026;2023-11-21T04:18:21;99437.28;;;6.04;97.37
68107;BME280;54892;47.488;19.026;2023-11-21T04:21:44;99446.53;;;6.07;97.38
68107;BME280;54892;47.488;19.026;2023-11-21T04:25:09;99453.00;;;6.04;97.54
68107;BME280;54892;47.488;19.026;2023-11-21T04:28:33;99452.69;;;6.01;97.95
68107;BME280;54892;47.488;19.026;2023-11-21T04:31:57;99456.19;;;6.06;97.89
68107;BME280;54892;47.488;19.026;2023-11-21T04:35:20;99437.47;;;6.15;97.42
68107;BME280;54892;47.488;19.026;2023-11-21T04:38:43;99448.47;;;6.17;97.19
68107;BME280;54892;47.488;19.026;2023-11-21T04:42:08;99435.94;;;6.19;97.08
68107;BME280;54892;47.488;19.026;2023-11-21T04:45:31;99448.88;;;6.25;97.14
68107;BME280;54892;47.488;19.026;2023-11-21T04:48:54;99447.78;;;6.21;97.19
68107;BME280;54892;47.488;19.026;2023-11-21T04:52:17;99463.00;;;6.24;97.14
68107;BME280;54892;47.488;19.026;2023-11-21T04:55:41;99472.22;;;6.27;97.15
68107;BME280;54892;47.488;19.026;2023-11-21T04:59:07;99471.50;;;6.32;97.07
68107;BME280;54892;47.488;19.026;2023-11-21T05:02:30;99482.47;;;6.29;96.97
68107;BME280;54892;47.488;19.026;2023-11-21T05:05:54;99478.34;;;6.33;97.19
68107;BME280;54892;47.488;19.026;2023-11-21T05:09:17;99478.56;;;6.31;97.00
68107;BME280;54892;47.488;19.026;2023-11-21T05:12:41;99491.75;;;6.36;97.33
68107;BME280;54892;47.488;19.026;2023-11-21T05:16:06;99486.81;;;6.40;97.30
68107;BME280;54892;47.488;19.026;2023-11-21T05:19:29;99486.50;;;6.36;97.71
68107;BME280;54892;47.488;19.026;2023-11-21T05:22:53;99478.88;;;6.52;96.79
68107;BME280;54892;47.488;19.026;2023-11-21T05:26:16;99474.06;;;6.44;97.54
68107;BME280;54892;47.488;19.026;2023-11-21T05:29:39;99459.78;;;6.57;96.71
68107;BME280;54892;47.488;19.026;2023-11-21T05:33:03;99462.97;;;6.59;96.71
68107;BME280;54892;47.488;19.026;2023-11-21T05:36:26;99467.66;;;6.57;96.91
68107;BME280;54892;47.488;19.026;2023-11-21T05:39:49;99470.09;;;6.63;97.00
68107;BME280;54892;47.488;19.026;2023-11-21T05:43:13;99475.59;;;6.62;97.08
68107;BME280;54892;47.488;19.026;2023-11-21T05:46:37;99463.22;;;6.57;97.48
68107;BME280;54892;47.488;19.026;2023-11-21T05:50:01;99466.69;;;6.63;97.01
68107;BME280;54892;47.488;19.026;2023-11-21T05:53:24;99467.31;;;6.70;96.88
68107;BME280;54892;47.488;19.026;2023-11-21T05:56:48;99472.03;;;6.68;96.91
68107;BME280;54892;47.488;19.026;2023-11-21T06:00:13;99471.03;;;6.74;96.83
68107;BME280;54892;47.488;19.026;2023-11-21T06:03:41;99483.13;;;6.75;96.75
68107;BME280;54892;47.488;19.026;2023-11-21T06:07:06;99485.94;;;6.91;96.18
68107;BME280;54892;47.488;19.026;2023-11-21T06:10:29;99500.09;;;6.90;96.29
68107;BME280;54892;47.488;19.026;2023-11-21T06:13:52;99502.16;;;6.88;96.39
68107;BME280;54892;47.488;19.026;2023-11-21T06:17:16;99504.38;;;6.96;96.21
68107;BME280;54892;47.488;19.026;2023-11-21T06:20:39;99525.66;;;6.99;95.58
68107;BME280;54892;47.488;19.026;2023-11-21T06:24:04;99525.00;;;7.09;94.88
68107;BME280;54892;47.488;19.026;2023-11-21T06:27:29;99520.69;;;7.20;93.19
68107;BME280;54892;47.488;19.026;2023-11-21T06:30:52;99534.84;;;7.19;92.99
68107;BME280;54892;47.488;19.026;2023-11-21T06:34:15;99541.69;;;7.20;92.81
68107;BME280;54892;47.488;19.026;2023-11-21T06:37:38;99551.19;;;7.26;92.61
68107;BME280;54892;47.488;19.026;2023-11-21T06:41:03;99556.81;;;7.35;92.12
68107;BME280;54892;47.488;19.026;2023-11-21T06:44:27;99560.84;;;7.43;91.12
68107;BME280;54892;47.488;19.026;2023-11-21T06:47:50;99561.75;;;7.54;90.27
68107;BME280;54892;47.488;19.026;2023-11-21T06:51:13;99567.63;;;7.61;89.24
68107;BME280;54892;47.488;19.026;2023-11-21T06:54:36;99568.97;;;7.64;89.25
68107;BME280;54892;47.488;19.026;2023-11-21T06:58:01;99569.88;;;7.74;89.40
68107;BME280;54892;47.488;19.026;2023-11-21T07:01:24;99561.50;;;7.77;88.65
68107;BME280;54892;47.488;19.026;2023-11-21T07:04:47;99562.84;;;7.80;88.15
68107;BME280;54892;47.488;19.026;2023-11-21T07:08:11;99562.59;;;7.82;87.37
68107;BME280;54892;47.488;19.026;2023-11-21T07:11:34;99563.38;;;7.82;87.56
68107;BME280;54892;47.488;19.026;2023-11-21T07:14:59;99566.75;;;7.77;87.11
68107;BME280;54892;47.488;19.026;2023-11-21T07:18:23;99574.87;;;7.76;87.10
68107;BME280;54892;47.488;19.026;2023-11-21T07:21:46;99571.63;;;7.91;86.00
68107;BME280;54892;47.488;19.026;2023-11-21T07:25:12;99582.84;;;7.86;86.08
68107;BME280;54892;47.488;19.026;2023-11-21T07:28:35;99584.84;;;8.01;85.50
68107;BME280;54892;47.488;19.026;2023-11-21T07:31:59;99576.47;;;7.77;87.31
68107;BME280;54892;47.488;19.026;2023-11-21T07:35:23;99581.75;;;7.55;88.57
68107;BME280;54892;47.488;19.026;2023-11-21T07:38:46;99579.22;;;7.65;87.86
68107;BME280;54892;47.488;19.026;2023-11-21T07:42:09;99576.94;;;7.46;88.72
68107;BME280;54892;47.488;19.026;2023-11-21T07:45:33;99574.34;;;7.52;88.62
68107;BME280;54892;47.488;19.026;2023-11-21T07:48:57;99578.91;;;7.61;88.37
68107;BME280;54892;47.488;19.026;2023-11-21T07:52:21;99576.94;;;7.74;87.29
68107;BME280;54892;47.488;19.026;2023-11-21T07:55:44;99577.28;;;7.77;87.56
68107;BME280;54892;47.488;19.026;2023-11-21T07:59:09;99589.31;;;7.73;88.52
68107;BME280;54892;47.488;19.026;2023-11-21T08:02:32;99580.88;;;7.71;89.15
68107;BME280;54892;47.488;19.026;2023-11-21T08:05:58;99575.63;;;7.71;89.61
68107;BME280;54892;47.488;19.026;2023-11-21T08:09:21;99583.03;;;7.80;89.33
68107;BME280;54892;47.488;19.026;2023-11-21T08:12:45;99578.47;;;7.92;87.72
68107;BME280;54892;47.488;19.026;2023-11-21T08:16:10;99581.03;;;7.87;87.67
68107;BME280;54892;47.488;19.026;2023-11-21T08:19:34;99588.91;;;7.87;88.06
68107;BME280;54892;47.488;19.026;2023-11-21T08:22:58;99588.22;;;7.97;88.03
68107;BME280;54892;47.488;19.026;2023-11-21T08:26:22;99573.00;;;7.99;87.24
68107;BME280;54892;47.488;19.026;2023-11-21T08:29:45;99568.09;;;8.07;87.54
68107;BME280;54892;47.488;19.026;2023-11-21T08:33:08;99566.59;;;8.17;86.21
68107;BME280;54892;47.488;19.026;2023-11-21T08:36:32;99565.22;;;8.09;86.81
68107;BME280;54892;47.488;19.026;2023-11-21T08:39:59;99565.78;;;8.11;87.07
68107;BME280;54892;47.488;19.026;2023-11-21T08:43:22;99563.44;;;8.15;87.14
68107;BME280;54892;47.488;19.026;2023-11-21T08:46:46;99557.94;;;8.16;87.75
68107;BME280;54892;47.488;19.026;2023-11-21T08:50:09;99556.91;;;8.22;87.83
68107;BME280;54892;47.488;19.026;2023-11-21T08:53:34;99559.34;;;8.29;87.76
68107;BME280;54892;47.488;19.026;2023-11-21T08:56:58;99552.25;;;8.30;87.84
68107;BME280;54892;47.488;19.026;2023-11-21T09:00:22;99565.59;;;8.50;86.28
68107;BME280;54892;47.488;19.026;2023-11-21T09:03:45;99569.38;;;8.65;86.23
68107;BME280;54892;47.488;19.026;2023-11-21T09:07:09;99574.28;;;8.51;86.97
68107;BME280;54892;47.488;19.026;2023-11-21T09:10:32;99580.38;;;8.57;86.38
68107;BME280;54892;47.488;19.026;2023-11-21T09:13:58;99576.47;;;8.64;85.79
68107;BME280;54892;47.488;19.026;2023-11-21T09:17:22;99567.22;;;8.57;86.14
68107;BME280;54892;47.488;19.026;2023-11-21T09:20:45;99568.00;;;8.57;86.42
68107;BME280;54892;47.488;19.026;2023-11-21T09:24:08;99570.19;;;8.65;86.19
68107;BME280;54892;47.488;19.026;2023-11-21T09:27:32;99555.16;;;8.66;85.64
68107;BME280;54892;47.488;19.026;2023-11-21T09:30:56;99551.81;;;8.71;85.15
68107;BME280;54892;47.488;19.026;2023-11-21T09:34:19;99551.06;;;8.80;84.66
68107;BME280;54892;47.488;19.026;2023-11-21T09:37:43;99550.53;;;8.78;84.74
68107;BME280;54892;47.488;19.026;2023-11-21T09:41:20;99540.22;;;8.72;84.84
68107;BME280;54892;47.488;19.026;2023-11-21T09:44:48;99532.62;;;8.75;85.18
68107;BME280;54892;47.488;19.026;2023-11-21T09:48:16;99528.44;;;8.79;85.45
68107;BME280;54892;47.488;19.026;2023-11-21T09:51:43;99525.84;;;8.90;85.64
68107;BME280;54892;47.488;19.026;2023-11-21T09:55:07;99518.50;;;8.92;85.62
68107;BME280;54892;47.488;19.026;2023-11-21T09:58:30;99517.41;;;8.88;86.00
68107;BME280;54892;47.488;19.026;2023-11-21T10:01:56;99518.22;;;8.93;86.09
68107;BME280;54892;47.488;19.026;2023-11-21T10:05:22;99526.44;;;9.02;85.57
68107;BME280;54892;47.488;19.026;2023-11-21T10:08:47;99517.78;;;9.12;85.61
68107;BME280;54892;47.488;19.026;2023-11-21T10:12:15;99525.12;;;9.05;85.87
68107;BME280;54892;47.488;19.026;2023-11-21T10:15:38;99514.25;;;8.86;86.70
68107;BME280;54892;47.488;19.026;2023-11-21T10:19:09;99515.78;;;8.81;87.44
68107;BME280;54892;47.488;19.026;2023-11-21T10:22:37;99514.50;;;8.84;87.31
68107;BME280;54892;47.488;19.026;2023-11-21T10:26:01;99509.78;;;8.86;87.29
68107;BME280;54892;47.488;19.026;2023-11-21T10:29:28;99506.47;;;9.06;85.92
68107;BME280;54892;47.488;19.026;2023-11-21T10:32:51;99499.03;;;8.98;86.06
68107;BME280;54892;47.488;19.026;2023-11-21T10:36:28;99505.13;;;9.09;85.73
68107;BME280;54892;47.488;19.026;2023-11-21T10:39:57;99509.91;;;9.12;85.47
68107;BME280;54892;47.488;19.026;2023-11-21T10:43:24;99501.44;;;9.05;85.30
68107;BME280;54892;47.488;19.026;2023-11-21T10:46:48;99499.84;;;9.04;85.28
68107;BME280;54892;47.488;19.026;2023-11-21T10:50:12;99509.88;;;9.02;86.03
68107;BME280;54892;47.488;19.026;2023-11-21T10:53:39;99505.66;;;9.06;85.75
68107;BME280;54892;47.488;19.026;2023-11-21T10:57:05;99505.41;;;9.12;85.35
68107;BME280;54892;47.488;19.026;2023-11-21T11:00:29;99504.38;;;9.13;85.88
68107;BME280;54892;47.488;19.026;2023-11-21T11:03:53;99507.81;;;9.19;86.10
68107;BME280;54892;47.488;19.026;2023-11-21T11:07:17;99506.28;;;9.28;86.29
68107;BME280;54892;47.488;19.026;2023-11-21T11:10:42;99505.25;;;9.40;85.40
68107;BME280;54892;47.488;19.026;2023-11-21T11:14:10;99502.41;;;9.57;83.93
68107;BME280;54892;47.488;19.026;2023-11-21T11:17:35;99505.28;;;9.50;83.91
68107;BME280;54892;47.488;19.026;2023-11-21T11:21:07;99501.03;;;9.34;85.16
68107;BME280;54892;47.488;19.026;2023-11-21T11:24:44;99488.91;;;9.33;85.15
68107;BME280;54892;47.488;19.026;2023-11-21T11:28:15;99485.22;;;9.34;85.59
68107;BME280;54892;47.488;19.026;2023-11-21T11:31:50;99494.44;;;9.36;85.35
68107;BME280;54892;47.488;19.026;2023-11-21T11:35:24;99497.87;;;9.42;84.77
68107;BME280;54892;47.488;19.026;2023-11-21T11:38:50;99484.19;;;9.50;84.06
68107;BME280;54892;47.488;19.026;2023-11-21T11:42:16;99479.75;;;9.61;81.94
68107;BME280;54892;47.488;19.026;2023-11-21T11:45:40;99468.44;;;9.60;81.86
68107;BME280;54892;47.488;19.026;2023-11-21T11:49:08;99466.84;;;9.65;81.67
68107;BME280;54892;47.488;19.026;2023-11-21T11:52:35;99470.00;;;9.67;82.10
68107;BME280;54892;47.488;19.026;2023-11-21T11:56:19;99465.53;;;9.83;81.24
68107;BME280;54892;47.488;19.026;2023-11-21T12:07:47;99461.56;;;9.59;82.73
68107;BME280;54892;47.488;19.026;2023-11-21T12:11:12;99452.34;;;9.78;80.90
68107;BME280;54892;47.488;19.026;2023-11-21T12:14:36;99453.94;;;9.68;80.96
68107;BME280;54892;47.488;19.026;2023-11-21T12:17:59;99457.88;;;9.60;81.81
68107;BME280;54892;47.488;19.026;2023-11-21T12:21:22;99471.84;;;9.66;82.00
68107;BME280;54892;47.488;19.026;2023-11-21T12:24:47;99457.38;;;9.64;82.11
68107;BME280;54892;47.488;19.026;2023-11-21T12:28:10;99456.56;;;9.63;82.34
68107;BME280;54892;47.488;19.026;2023-11-21T12:31:34;99454.47;;;9.65;82.73
68107;BME280;54892;47.488;19.026;2023-11-21T12:34:57;99450.78;;;9.71;82.49
68107;BME280;54892;47.488;19.026;2023-11-21T12:38:22;99443.13;;;9.70;82.69
68107;BME280;54892;47.488;19.026;2023-11-21T12:41:48;99438.38;;;9.72;82.59
68107;BME280;54892;47.488;19.026;2023-11-21T12:45:19;99437.87;;;9.75;82.81
68107;BME280;54892;47.488;19.026;2023-11-21T12:48:43;99434.97;;;9.77;82.69
68107;BME280;54892;47.488;19.026;2023-11-21T12:52:08;99439.44;;;9.76;82.75
68107;BME280;54892;47.488;19.026;2023-11-21T12:55:32;99444.44;;;9.78;82.84
68107;BME280;54892;47.488;19.026;2023-11-21T12:59:00;99438.91;;;9.84;82.37
68107;BME280;54892;47.488;19.026;2023-11-21T13:02:26;99441.03;;;9.87;83.04
68107;BME280;54892;47.488;19.026;2023-11-21T13:05:50;99437.34;;;9.88;82.83
68107;BME280;54892;47.488;19.026;2023-11-21T13:09:15;99437.34;;;9.88;82.15
68107;BME280;54892;47.488;19.026;2023-11-21T13:12:44;99441.56;;;9.89;81.72
68107;BME280;54892;47.488;19.026;2023-11-21T13:16:11;99440.25;;;9.82;82.49
68107;BME280;54892;47.488;19.026;2023-11-21T13:19:35;99442.34;;;9.85;82.67
68107;BME280;54892;47.488;19.026;2023-11-21T13:22:58;99438.13;;;9.89;82.86
68107;BME280;54892;47.488;19.026;2023-11-21T13:26:22;99446.03;;;10.10;82.20
68107;BME280;54892;47.488;19.026;2023-11-21T13:29:47;99443.13;;;10.06;81.46
68107;BME280;54892;47.488;19.026;2023-11-21T13:33:13;99450.00;;;9.92;80.91
68107;BME280;54892;47.488;19.026;2023-11-21T13:36:40;99456.56;;;9.79;81.87
68107;BME280;54892;47.488;19.026;2023-11-21T13:40:05;99452.63;;;9.71;82.13
68107;BME280;54892;47.488;19.026;2023-11-21T13:43:36;99460.00;;;9.74;81.93
68107;BME280;54892;47.488;19.026;2023-11-21T13:46:59;99458.44;;;9.78;81.91
68107;BME280;54892;47.488;19.026;2023-11-21T13:50:24;99457.09;;;9.75;82.19
68107;BME280;54892;47.488;19.026;2023-11-21T13:53:52;99455.78;;;9.73;82.54
68107;BME280;54892;47.488;19.026;2023-11-21T13:57:16;99452.37;;;9.83;82.51
68107;BME280;54892;47.488;19.026;2023-11-21T14:00:42;99452.63;;;9.81;82.18
68107;BME280;54892;47.488;19.026;2023-11-21T14:04:07;99458.44;;;9.78;82.17
68107;BME280;54892;47.488;19.026;2023-11-21T14:07:42;99457.38;;;9.74;82.57
68107;BME280;54892;47.488;19.026;2023-11-21T14:11:09;99455.25;;;9.76;82.49
68107;BME280;54892;47.488;19.026;2023-11-21T14:14:39;99467.13;;;9.84;82.24
68107;BME280;54892;47.488;19.026;2023-11-21T14:18:02;99474.25;;;9.78;82.61
68107;BME280;54892;47.488;19.026;2023-11-21T14:21:29;99475.03;;;9.68;82.16
68107;BME280;54892;47.488;19.026;2023-11-21T14:24:54;99481.59;;;9.66;82.51
68107;BME280;54892;47.488;19.026;2023-11-21T14:28:20;99477.91;;;9.62;82.56
68107;BME280;54892;47.488;19.026;2023-11-21T14:31:43;99482.13;;;9.57;82.61
68107;BME280;54892;47.488;19.026;2023-11-21T14:35:07;99489.47;;;9.50;80.91
68107;BME280;54892;47.488;19.026;2023-11-21T14:38:30;99492.09;;;9.50;80.89
68107;BME280;54892;47.488;19.026;2023-11-21T14:41:57;99490.25;;;9.45;80.67
68107;BME280;54892;47.488;19.026;2023-11-21T14:45:21;99494.44;;;9.36;81.03
68107;BME280;54892;47.488;19.026;2023-11-21T14:48:47;99490.75;;;9.32;81.23
68107;BME280;54892;47.488;19.026;2023-11-21T14:52:20;99489.94;;;9.26;81.01
68107;BME280;54892;47.488;19.026;2023-11-21T14:55:56;99493.34;;;9.22;80.62
68107;BME280;54892;47.488;19.026;2023-11-21T14:59:23;99490.19;;;9.20;80.43
68107;BME280;54892;47.488;19.026;2023-11-21T15:02:46;99488.84;;;9.12;80.73
68107;BME280;54892;47.488;19.026;2023-11-21T15:06:11;99492.78;;;9.09;80.70
68107;BME280;54892;47.488;19.026;2023-11-21T15:09:48;99499.03;;;8.98;80.60
68107;BME280;54892;47.488;19.026;2023-11-21T15:13:15;99498.56;;;9.06;79.95
68107;BME280;54892;47.488;19.026;2023-11-21T15:16:39;99500.34;;;8.95;80.31
68107;BME280;54892;47.488;19.026;2023-11-21T15:20:06;99494.00;;;8.86;80.80
68107;BME280;54892;47.488;19.026;2023-11-21T15:23:30;99498.22;;;8.87;80.94
68107;BME280;54892;47.488;19.026;2023-11-21T15:26:56;99497.63;;;8.80;81.21
68107;BME280;54892;47.488;19.026;2023-11-21T15:30:21;99502.41;;;8.83;81.22
68107;BME280;54892;47.488;19.026;2023-11-21T15:33:47;99488.94;;;8.74;81.58
68107;BME280;54892;47.488;19.026;2023-11-21T15:37:11;99496.81;;;8.74;81.70
68107;BME280;54892;47.488;19.026;2023-11-21T15:40:34;99496.28;;;8.72;82.00
68107;BME280;54892;47.488;19.026;2023-11-21T15:43:57;99498.41;;;8.75;82.03
68107;BME280;54892;47.488;19.026;2023-11-21T15:47:20;99502.84;;;8.70;82.17
68107;BME280;54892;47.488;19.026;2023-11-21T15:50:45;99490.97;;;8.62;82.13
68107;BME280;54892;47.488;19.026;2023-11-21T15:54:08;99490.16;;;8.61;82.42
68107;BME280;54892;47.488;19.026;2023-11-21T15:57:31;99494.88;;;8.54;82.68
68107;BME280;54892;47.488;19.026;2023-11-21T16:00:54;99492.75;;;8.51;83.04
68107;BME280;54892;47.488;19.026;2023-11-21T16:04:18;99494.25;;;8.47;83.11
68107;BME280;54892;47.488;19.026;2023-11-21T16:07:44;99492.47;;;8.52;82.81
68107;BME280;54892;47.488;19.026;2023-11-21T16:11:08;99489.00;;;8.47;83.08
68107;BME280;54892;47.488;19.026;2023-11-21T16:14:32;99488.94;;;8.42;83.15
68107;BME280;54892;47.488;19.026;2023-11-21T16:17:58;99499.78;;;8.45;83.03
68107;BME280;54892;47.488;19.026;2023-11-21T16:21:21;99496.34;;;8.45;83.06
68107;BME280;54892;47.488;19.026;2023-11-21T16:24:46;99504.94;;;8.35;83.55
68107;BME280;54892;47.488;19.026;2023-11-21T16:28:09;99503.13;;;8.35;83.51
68107;BME280;54892;47.488;19.026;2023-11-21T16:31:32;99505.53;;;8.42;83.06
68107;BME280;54892;47.488;19.026;2023-11-21T16:34:56;99503.41;;;8.39;83.29
68107;BME280;54892;47.488;19.026;2023-11-21T16:38:21;99501.88;;;8.43;83.14
68107;BME280;54892;47.488;19.026;2023-11-21T16:41:46;99498.37;;;8.32;83.66
68107;BME280;54892;47.488;19.026;2023-11-21T16:45:09;99498.59;;;8.26;83.77
68107;BME280;54892;47.488;19.026;2023-11-21T16:48:32;99503.88;;;8.31;83.55
68107;BME280;54892;47.488;19.026;2023-11-21T16:51:55;99503.56;;;8.22;84.02
68107;BME280;54892;47.488;19.026;2023-11-21T16:55:18;99496.94;;;8.19;83.99
68107;BME280;54892;47.488;19.026;2023-11-21T16:58:43;99494.88;;;8.21;83.96
68107;BME280;54892;47.488;19.026;2023-11-21T17:02:07;99507.56;;;8.30;83.39
68107;BME280;54892;47.488;19.026;2023-11-21T17:05:31;99506.41;;;8.20;83.62
68107;BME280;54892;47.488;19.026;2023-11-21T17:08:54;99495.06;;;8.15;83.66
68107;BME280;54892;47.488;19.026;2023-11-21T17:12:18;99508.72;;;8.12;84.03
68107;BME280;54892;47.488;19.026;2023-11-21T17:15:43;99514.25;;;8.10;84.19
68107;BME280;54892;47.488;19.026;2023-11-21T17:19:07;99517.84;;;8.04;84.17
68107;BME280;54892;47.488;19.026;2023-11-21T17:22:31;99519.66;;;7.98;84.40
68107;BME280;54892;47.488;19.026;2023-11-21T17:25:54;99520.75;;;8.02;84.16
68107;BME280;54892;47.488;19.026;2023-11-21T17:29:17;99522.38;;;8.08;83.63
68107;BME280;54892;47.488;19.026;2023-11-21T17:32:42;99526.00;;;8.02;84.02
68107;BME280;54892;47.488;19.026;2023-11-21T17:36:06;99524.69;;;8.05;84.12
68107;BME280;54892;47.488;19.026;2023-11-21T17:39:31;99532.56;;;8.00;83.96
68107;BME280;54892;47.488;19.026;2023-11-21T17:42:54;99539.19;;;8.07;83.44
68107;BME280;54892;47.488;19.026;2023-11-21T17:46:19;99529.72;;;8.06;83.62
68107;BME280;54892;47.488;19.026;2023-11-21T17:49:44;99529.88;;;7.95;84.14
68107;BME280;54892;47.488;19.026;2023-11-21T17:53:07;99531.47;;;7.96;84.25
68107;BME280;54892;47.488;19.026;2023-11-21T17:56:31;99535.37;;;7.93;84.42
68107;BME280;54892;47.488;19.026;2023-11-21T17:59:54;99542.25;;;7.99;84.41
68107;BME280;54892;47.488;19.026;2023-11-21T18:03:17;99552.69;;;7.89;85.00
68107;BME280;54892;47.488;19.026;2023-11-21T18:06:41;99554.97;;;7.80;85.56
68107;BME280;54892;47.488;19.026;2023-11-21T18:10:06;99562.59;;;7.82;85.47
68107;BME280;54892;47.488;19.026;2023-11-21T18:13:30;99564.66;;;7.80;85.82